Data for 10/31/2018

Time Sea-Level Adjusted Pressure Absolute Pressure Temperature Relative Humidity Dew Point   
(mb) (inHg) (mb) (inHg) (C) (F) (%) (C) (F)
00:05 1022 30.18 852 25.16 2.1 35.8 59 -5 22.9
00:10 1022 30.18 852 25.16 2.1 35.7 60 -5 23.1
00:15 1022 30.18 852 25.16 2 35.6 60 -4.8 23.3
00:20 1022 30.18 852 25.16 1.9 35.4 61 -4.9 23.2
00:25 1022 30.18 851 25.13 1.8 35.2 59 -5.5 22.2
00:30 1022 30.18 851 25.13 1.9 35.4 58 -5.6 22
00:35 1022 30.18 851 25.13 2 35.6 58 -5.4 22.2
00:40 1022 30.18 851 25.13 2 35.6 57 -5.6 21.9
00:45 1022 30.18 851 25.13 2 35.5 58 -5.4 22.3
00:50 1022 30.18 851 25.13 1.9 35.4 60 -5.1 22.8
00:55 1022 30.18 852 25.16 1.8 35.2 60 -5.2 22.6
01:00 1022 30.18 852 25.16 1.7 35 61 -5.1 22.8
01:05 1022 30.18 852 25.16 1.7 35 60 -5.2 22.6
01:10 1022 30.18 852 25.16 1.6 34.9 60 -5.3 22.4
01:15 1022 30.18 852 25.16 1.6 34.8 60 -5.4 22.2
01:20 1022 30.18 852 25.16 1.5 34.7 60 -5.4 22.4
01:25 1022 30.18 851 25.13 1.4 34.5 61 -5.4 22.3
01:30 1022 30.18 851 25.13 1.4 34.5 59 -5.7 21.7
01:35 1022 30.18 852 25.16 1.5 34.7 57 -6.1 21.1
01:40 1022 30.18 851 25.13 1.6 34.9 56 -6.2 20.9
01:45 1022 30.18 851 25.13 1.6 34.9 57 -6 21.2
01:50 1022 30.18 851 25.13 1.5 34.8 57 -6 21.2
01:55 1022 30.18 851 25.13 1.5 34.6 57 -6.3 20.7
02:00 1022 30.18 851 25.13 1.6 34.9 56 -6.4 20.5
02:05 1022 30.18 851 25.13 1.7 35 56 -6.1 20.9
02:10 1022 30.18 851 25.13 1.6 34.9 59 -5.6 21.9
02:15 1022 30.18 851 25.13 1.3 34.4 60 -5.6 21.9
02:20 1022 30.18 851 25.13 1.3 34.3 57 -6.3 20.6
02:25 1022 30.18 851 25.13 1.6 34.9 54 -6.7 19.9
02:30 1022 30.18 851 25.13 1.9 35.4 53 -6.6 20.1
02:35 1022 30.18 851 25.13 2 35.6 53 -6.6 20.1
02:40 1022 30.18 851 25.13 2 35.6 53 -6.6 20.1
02:45 1022 30.18 851 25.13 2 35.6 51 -7.1 19.3
02:50 1022 30.18 851 25.13 2.1 35.7 52 -6.9 19.6
02:55 1022 30.18 851 25.13 2 35.6 52 -6.9 19.5
03:00 1022 30.18 851 25.13 2 35.5 52 -6.9 19.5
03:05 1022 30.18 851 25.13 1.9 35.4 53 -6.6 20.1
03:10 1022 30.18 851 25.13 1.8 35.2 53 -6.7 19.9
03:15 1021 30.15 851 25.13 1.8 35.2 53 -6.7 19.9
03:20 1021 30.15 851 25.13 1.7 35.1 54 -6.5 20.2
03:25 1021 30.15 851 25.13 1.6 34.8 55 -6.5 20.4
03:30 1021 30.15 851 25.13 1.4 34.6 57 -6.3 20.7
03:35 1021 30.15 850 25.1 1.4 34.4 57 -6.3 20.7
03:40 1021 30.15 850 25.1 1.4 34.4 58 -6.1 21
03:45 1021 30.15 850 25.1 1.3 34.3 58 -6.1 21
03:50 1021 30.15 850 25.1 1.2 34.1 60 -5.7 21.8
03:55 1021 30.15 850 25.1 0.9 33.6 61 -5.8 21.5
04:00 1021 30.15 850 25.1 0.8 33.4 61 -5.9 21.4
04:05 1021 30.15 850 25.1 0.7 33.3 61 -6 21.1
04:10 1021 30.15 850 25.1 0.7 33.3 59 -6.3 20.6
04:15 1021 30.15 850 25.1 0.7 33.3 60 -6.2 20.8
04:20 1021 30.15 850 25.1 0.6 33.2 58 -6.6 20.1
04:25 1021 30.15 850 25.1 0.6 33.2 59 -6.5 20.2
04:30 1021 30.15 850 25.1 0.6 33 58 -6.7 20
04:35 1021 30.15 850 25.1 0.5 32.8 59 -6.5 20.2
04:40 1021 30.15 850 25.1 0.3 32.6 60 -6.4 20.4
04:45 1020 30.12 850 25.1 0.2 32.3 62 -6.4 20.5
04:50 1020 30.12 850 25.1 0 32.1 62 -6.5 20.4
04:55 1020 30.12 850 25.1 -0.1 31.9 62 -6.4 20.5
05:00 1020 30.12 850 25.1 -0.2 31.6 64 -6.3 20.7
05:05 1020 30.12 850 25.1 -0.3 31.5 64 -6.3 20.7
05:10 1020 30.12 850 25.1 -0.4 31.4 63 -6.7 20
05:15 1020 30.12 850 25.1 -0.4 31.3 63 -6.6 20.2
05:20 1021 30.15 850 25.1 -0.5 31.1 64 -6.4 20.5
05:25 1021 30.15 850 25.1 -0.5 31 65 -6.4 20.6
05:30 1021 30.15 850 25.1 -0.6 30.9 64 -6.6 20
05:35 1020 30.12 850 25.1 -0.5 31.2 64 -6.4 20.4
05:40 1020 30.12 850 25.1 -0.5 31.1 65 -6.4 20.5
05:45 1020 30.12 850 25.1 -0.6 31 65 -6.4 20.4
05:50 1020 30.12 850 25.1 -0.4 31.3 64 -6.4 20.5
05:55 1020 30.12 850 25.1 -0.3 31.4 64 -6.3 20.7
06:00 1020 30.12 850 25.1 -0.4 31.2 63 -6.5 20.2
06:05 1020 30.12 850 25.1 -0.4 31.4 62 -6.7 20
06:10 1020 30.12 850 25.1 -0.2 31.6 63 -6.5 20.3
06:15 1020 30.12 849 25.07 -0.2 31.6 63 -6.4 20.4
06:20 1020 30.12 849 25.07 -0.3 31.5 65 -6 21.1
06:25 1020 30.12 849 25.07 -0.6 31 65 -6.3 20.7
06:30 1020 30.12 849 25.07 -0.7 30.7 64 -6.7 20
06:35 1020 30.12 849 25.07 -0.7 30.8 63 -6.9 19.6
06:40 1020 30.12 849 25.07 -0.6 31 60 -7.3 18.8
06:45 1020 30.12 849 25.07 -0.3 31.5 60 -7.1 19.1
06:50 1020 30.12 849 25.07 -0.2 31.6 60 -7.1 19.3
06:55 1020 30.12 849 25.07 -0.3 31.4 62 -6.7 20
07:00 1020 30.12 849 25.07 -0.6 31 65 -6.4 20.4
07:05 1020 30.12 849 25.07 -0.7 30.7 65 -6.5 20.4
07:10 1020 30.12 849 25.07 -0.9 30.4 64 -6.9 19.7
07:15 1020 30.12 849 25.07 -0.9 30.4 66 -6.5 20.3
07:20 1020 30.12 849 25.07 -1.2 29.9 66 -6.7 19.9
07:25 1020 30.12 849 25.07 -1.1 30 66 -6.7 19.9
07:30 1020 30.12 849 25.07 -1 30.1 65 -6.8 19.8
07:35 1020 30.12 849 25.07 -1.2 29.9 66 -6.8 19.8
07:40 1020 30.12 849 25.07 -1.2 29.9 65 -7 19.5
07:45 1020 30.12 849 25.07 -1.1 29.9 64 -7.1 19.3
07:50 1020 30.12 849 25.07 -1 30.2 64 -6.9 19.5
07:55 1020 30.12 849 25.07 -1 30.3 65 -6.7 20
08:00 1020 30.12 849 25.07 -1.2 29.9 68 -6.3 20.7
08:05 1019 30.09 849 25.07 -1.5 29.3 69 -6.4 20.4
08:10 1019 30.09 849 25.07 -1.4 29.5 66 -6.9 19.6
08:15 1020 30.12 849 25.07 -1.2 29.9 64 -7.1 19.3
08:20 1019 30.09 849 25.07 -0.9 30.3 64 -7 19.4
08:25 1019 30.09 849 25.07 -0.9 30.4 64 -6.9 19.5
08:30 1019 30.09 849 25.07 -0.7 30.8 63 -6.8 19.8
08:35 1019 30.09 849 25.07 -0.1 31.9 60 -6.8 19.7
08:40 1019 30.09 849 25.07 0.2 32.4 60 -6.6 20.2
08:45 1019 30.09 848 25.04 0.2 32.4 61 -6.4 20.5
08:50 1019 30.09 848 25.04 0.2 32.4 60 -6.7 20
08:55 1019 30.09 848 25.04 0.6 33.1 57 -6.9 19.6
09:00 1019 30.09 848 25.04 0.7 33.3 59 -6.5 20.4
09:05 1019 30.09 848 25.04 0.8 33.5 59 -6.4 20.5
09:10 1019 30.09 848 25.04 0.9 33.5 58 -6.5 20.4
09:15 1019 30.09 848 25.04 1 33.8 59 -6.1 20.9
09:20 1019 30.09 848 25.04 1.2 34.1 58 -6.2 20.8
09:25 1019 30.09 848 25.04 1.5 34.6 57 -6.1 21.1
09:30 1019 30.09 848 25.04 2.1 35.8 54 -6.3 20.6
09:35 1019 30.09 848 25.04 2.6 36.7 49 -6.9 19.5
09:40 1018 30.06 848 25.04 3.1 37.5 48 -6.9 19.6
09:45 1018 30.06 848 25.04 3.1 37.5 46 -7.4 18.7
09:50 1018 30.06 848 25.04 3.4 38.2 44 -7.7 18.2
09:55 1018 30.06 848 25.04 4 39.2 42 -7.9 17.7
10:00 1018 30.06 848 25.04 4.1 39.4 42 -7.8 17.9
10:05 1018 30.06 847 25.01 3.8 38.8 40 -8.5 16.7
10:10 1018 30.06 847 25.01 3.9 39.1 41 -8.3 17.1
10:15 1018 30.06 847 25.01 4.6 40.3 39 -8 17.5
10:20 1018 30.06 847 25.01 5.1 41.2 36 -8.7 16.4
10:25 1018 30.06 847 25.01 5.6 42 35 -8.6 16.5
10:30 1018 30.06 847 25.01 5.3 41.6 37 -8.3 17
10:35 1018 30.06 847 25.01 5.7 42.3 35 -8.5 16.8
10:40 1018 30.06 847 25.01 6.6 43.9 33 -8.6 16.6
10:45 1018 30.06 847 25.01 6.8 44.2 32 -8.6 16.5
10:50 1018 30.06 847 25.01 6.8 44.2 33 -8.2 17.2
10:55 1018 30.06 847 25.01 6.2 43.1 35 -8.3 17
11:00 1018 30.06 847 25.01 6.3 43.3 31 -9.7 14.6
11:05 1018 30.06 847 25.01 6.7 44.1 32 -8.9 15.9
11:10 1018 30.06 847 25.01 6.8 44.3 32 -8.9 16
11:15 1018 30.06 847 25.01 6.7 44.1 33 -8.2 17.2
11:20 1018 30.06 847 25.01 6.8 44.2 34 -7.9 17.9
11:25 1018 30.06 847 25.01 6.6 43.8 35 -8 17.7
11:30 1017 30.03 847 25.01 6.2 43.1 38 -7.3 18.9
11:35 1017 30.03 847 25.01 6.1 43 37 -7.5 18.5
11:40 1017 30.03 847 25.01 5.9 42.6 38 -7.4 18.7
11:45 1017 30.03 847 25.01 5.6 42 39 -7.4 18.6
11:50 1017 30.03 847 25.01 5.4 41.8 38 -7.8 17.9
11:55 1017 30.03 847 25.01 5.4 41.8 35 -8.8 16.1
12:00 1017 30.03 847 25.01 5.5 41.8 36 -8.3 17.1
12:05 1017 30.03 847 25.01 5.4 41.8 36 -8.6 16.6
12:10 1017 30.03 847 25.01 5.4 41.7 35 -8.7 16.3
12:15 1017 30.03 846 24.98 5.4 41.7 35 -8.9 16
12:20 1017 30.03 846 24.98 5.4 41.8 35 -8.8 16.2
12:25 1017 30.03 846 24.98 5.5 41.8 36 -8.6 16.5
12:30 1017 30.03 846 24.98 5.4 41.7 36 -8.3 17
12:35 1017 30.03 846 24.98 5.2 41.4 38 -7.8 17.9
12:40 1017 30.03 846 24.98 5 40.9 40 -7.5 18.6
12:45 1017 30.03 847 25.01 4.2 39.6 49 -5.5 22.1
12:50 1017 30.03 847 25.01 3.4 38.1 53 -5.2 22.6
12:55 1017 30.03 847 25.01 3.2 37.7 60 -3.8 25.2
13:00 1018 30.06 847 25.01 2.6 36.7 61 -4.1 24.5
13:05 1017 30.03 847 25.01 2.7 36.8 59 -4.5 23.9
13:10 1017 30.03 847 25.01 2.6 36.6 65 -3.3 26
13:15 1017 30.03 847 25.01 2.3 36.2 67 -3.2 26.2
13:20 1017 30.03 846 24.98 2.6 36.6 62 -4 24.9
13:25 1017 30.03 846 24.98 2.5 36.5 66 -3.1 26.4
13:30 1017 30.03 846 24.98 2.2 35.9 72 -2.4 27.7
13:35 1017 30.03 846 24.98 1.7 35.1 77 -1.9 28.5
13:40 1017 30.03 846 24.98 1.5 34.7 77 -2.2 28.1
13:45 1017 30.03 846 24.98 1.4 34.6 79 -1.9 28.6
13:50 1017 30.03 846 24.98 1.3 34.3 80 -1.8 28.7
13:55 1017 30.03 846 24.98 1.3 34.4 81 -1.5 29.2
14:00 1017 30.03 846 24.98 1.6 34.9 80 -1.5 29.4
14:05 1017 30.03 846 24.98 1.5 34.7 81 -1.4 29.5
14:10 1017 30.03 846 24.98 1.4 34.6 82 -1.3 29.6
14:15 1017 30.03 846 24.98 1.5 34.6 83 -1.2 29.8
14:20 1017 30.03 846 24.98 1.5 34.6 82 -1.2 29.8
14:25 1016 30 846 24.98 1.3 34.4 84 -1.1 30.1
14:30 1016 30 846 24.98 1.2 34.1 85 -1.1 30.1
14:35 1016 30 845 24.95 1 33.7 86 -1.1 30
14:40 1016 30 845 24.95 0.8 33.5 87 -1.1 30
14:45 1016 30 845 24.95 0.7 33.2 88 -1.1 30.1
14:50 1016 30 845 24.95 0.6 33 89 -1 30.2
14:55 1016 30 845 24.95 0.6 33.1 89 -1 30.2
15:00 1016 30 845 24.95 0.6 33 89 -1.1 30.1
15:05 1016 30 845 24.95 0.5 32.9 89 -1.1 30
15:10 1016 30 845 24.95 0.5 32.9 89 -1.1 30
15:15 1016 30 845 24.95 0.5 32.9 89 -1 30.1
15:20 1016 30 845 24.95 0.5 32.9 89 -1.1 30
15:25 1016 30 845 24.95 0.5 32.8 89 -1.1 30
15:30 1016 30 845 24.95 0.5 32.9 89 -1 30.1
15:35 1016 30 845 24.95 0.6 33.1 89 -1 30.3
15:40 1016 30 845 24.95 0.7 33.2 89 -0.9 30.3
15:45 1016 30 845 24.95 0.7 33.3 89 -0.9 30.4
15:50 1016 30 845 24.95 0.8 33.5 89 -0.9 30.4
15:55 1016 30 845 24.95 0.9 33.7 88 -0.8 30.5
16:00 1016 30 845 24.95 1 33.9 87 -0.8 30.5
16:05 1016 30 845 24.95 1.1 34 88 -0.7 30.8
16:10 1016 30 845 24.95 1.3 34.3 87 -0.7 30.8
16:15 1016 30 845 24.95 1.3 34.4 87 -0.7 30.7
16:20 1016 30 845 24.95 1.2 34.2 87 -0.7 30.7
16:25 1016 30 845 24.95 1.1 34 87 -0.8 30.5
16:30 1016 30 845 24.95 1.1 34 87 -0.8 30.6
16:35 1016 30 845 24.95 1.1 34 87 -0.8 30.6
16:40 1016 30 845 24.95 1.1 34 88 -0.7 30.7
16:45 1016 30 845 24.95 1.2 34.1 87 -0.7 30.7
16:50 1016 30 845 24.95 1.2 34.2 87 -0.7 30.7
16:55 1015 29.97 845 24.95 1.2 34.1 87 -0.8 30.5
17:00 1015 29.97 845 24.95 1.1 34 87 -0.9 30.4
17:05 1016 30 845 24.95 1.1 34 87 -0.8 30.5
17:10 1016 30 845 24.95 1.2 34.1 87 -0.8 30.5
17:15 1016 30 845 24.95 1.2 34.2 86 -0.8 30.5
17:20 1016 30 845 24.95 1.3 34.3 86 -0.9 30.4
17:25 1016 30 845 24.95 1.3 34.3 86 -0.8 30.6
17:30 1016 30 845 24.95 1.4 34.5 86 -0.7 30.8
17:35 1016 30 845 24.95 1.3 34.4 87 -0.7 30.8
17:40 1015 29.97 845 24.95 1.1 34 87 -0.7 30.7
17:45 1015 29.97 845 24.95 1 33.8 88 -0.8 30.6
17:50 1016 30 845 24.95 1.1 33.9 88 -0.7 30.7
17:55 1016 30 845 24.95 1.1 33.9 88 -0.7 30.7
18:00 1016 30 845 24.95 1.1 33.9 87 -0.8 30.6
18:05 1016 30 845 24.95 1.1 34 87 -0.9 30.4
18:10 1016 30 845 24.95 1.1 34.1 87 -0.8 30.5
18:15 1016 30 845 24.95 1.2 34.2 87 -0.8 30.6
18:20 1016 30 845 24.95 1.3 34.3 86 -0.8 30.5
18:25 1016 30 845 24.95 1.3 34.4 85 -0.9 30.4
18:30 1015 29.97 845 24.95 1.4 34.6 85 -0.9 30.4
18:35 1015 29.97 845 24.95 1.4 34.6 85 -0.9 30.5
18:40 1016 30 845 24.95 1.5 34.7 85 -0.8 30.6
18:45 1016 30 845 24.95 1.6 34.9 85 -0.7 30.8
18:50 1016 30 845 24.95 1.5 34.8 85 -0.7 30.7
18:55 1016 30 845 24.95 1.5 34.8 85 -0.7 30.8
19:00 1016 30 845 24.95 1.5 34.7 85 -0.8 30.6
19:05 1016 30 845 24.95 1.5 34.6 85 -0.7 30.7
19:10 1016 30 845 24.95 1.3 34.3 85 -0.9 30.3
19:15 1016 30 845 24.95 1.4 34.4 84 -1.1 30.1
19:20 1016 30 845 24.95 1.6 34.9 80 -1.4 29.5
19:25 1016 30 845 24.95 1.9 35.4 80 -1.1 30
19:30 1016 30 845 24.95 2 35.6 78 -1.4 29.5
19:35 1016 30 845 24.95 2 35.6 79 -1.2 29.9
19:40 1016 30 845 24.95 2 35.6 82 -0.7 30.7
19:45 1016 30 845 24.95 1.9 35.5 82 -0.9 30.4
19:50 1016 30 845 24.95 1.9 35.5 82 -0.8 30.6
19:55 1016 30 845 24.95 1.9 35.5 81 -1 30.2
20:00 1016 30 845 24.95 2 35.6 81 -0.9 30.3
20:05 1016 30 845 24.95 1.9 35.4 81 -1.1 30
20:10 1016 30 845 24.95 1.9 35.4 79 -1.3 29.7
20:15 1016 30 845 24.95 2 35.5 79 -1.3 29.7
20:20 1016 30 845 24.95 2.1 35.7 79 -1.2 29.9
20:25 1016 30 845 24.95 2.2 35.9 79 -1.1 30
20:30 1016 30 845 24.95 2.2 36 80 -0.9 30.4
20:35 1016 30 845 24.95 2.3 36.1 80 -0.7 30.7
20:40 1016 30 845 24.95 2.2 36 78 -1.1 30
20:45 1016 30 845 24.95 2.3 36.1 78 -1.1 30.1
20:50 1016 30 845 24.95 2.4 36.3 79 -0.9 30.4
20:55 1016 30 845 24.95 2.5 36.4 79 -0.8 30.6
21:00 1016 30 845 24.95 2.4 36.3 81 -0.5 31.1
21:05 1016 30 846 24.98 2.3 36.1 80 -0.9 30.5
21:10 1016 30 846 24.98 2.4 36.3 80 -0.6 30.9
21:15 1016 30 846 24.98 2.5 36.4 80 -0.6 30.9
21:20 1016 30 846 24.98 2.3 36.1 82 -0.5 31.1
21:25 1016 30 845 24.95 1.9 35.4 83 -0.7 30.8
21:30 1016 30 846 24.98 1.8 35.2 83 -0.9 30.5
21:35 1016 30 846 24.98 2 35.5 81 -0.9 30.4
21:40 1016 30 846 24.98 1.9 35.4 83 -0.7 30.7
21:45 1016 30 846 24.98 1.9 35.4 81 -1 30.2
21:50 1016 30 846 24.98 2.2 35.9 80 -1 30.3
21:55 1016 30 846 24.98 2.3 36.2 81 -0.6 30.8
22:00 1016 30 846 24.98 2.3 36.1 80 -0.8 30.5
22:05 1017 30.03 846 24.98 2.4 36.3 78 -1 30.2
22:10 1016 30 846 24.98 2.6 36.7 78 -0.8 30.6
22:15 1016 30 846 24.98 2.7 36.9 78 -0.8 30.6
22:20 1016 30 846 24.98 2.8 37.1 77 -0.8 30.5
22:25 1017 30.03 846 24.98 2.9 37.1 79 -0.4 31.3
22:30 1017 30.03 846 24.98 2.6 36.7 80 -0.4 31.2
22:35 1017 30.03 846 24.98 2.4 36.4 82 -0.3 31.5
22:40 1017 30.03 846 24.98 2.2 36 84 -0.3 31.5
22:45 1017 30.03 846 24.98 2.2 35.9 83 -0.4 31.3
22:50 1017 30.03 846 24.98 2.3 36.1 80 -0.8 30.5
22:55 1017 30.03 846 24.98 2.5 36.5 81 -0.5 31.2
23:00 1017 30.03 846 24.98 2.7 36.8 77 -0.9 30.3
23:05 1017 30.03 846 24.98 3.1 37.6 72 -1.5 29.3
23:10 1017 30.03 846 24.98 3.5 38.4 72 -1.1 30
23:15 1017 30.03 846 24.98 3.6 38.5 73 -0.8 30.6
23:20 1017 30.03 846 24.98 3.6 38.4 76 -0.3 31.4
23:25 1017 30.03 846 24.98 3.4 38.1 74 -0.7 30.7
23:30 1017 30.03 846 24.98 3.3 38 74 -0.9 30.4
23:35 1017 30.03 846 24.98 3.5 38.3 72 -1.2 29.9
23:40 1017 30.03 846 24.98 3.6 38.4 72 -1 30.3
23:45 1017 30.03 846 24.98 3.7 38.6 71 -1.1 30
23:50 1017 30.03 846 24.98 4 39.2 68 -1.4 29.5
23:55 1017 30.03 846 24.98 4.4 40 67 -1.2 29.8
24:00 1017 30.03 846 24.98 4.5 40.2 66 -1.2 29.9